AirNav   Air Wisconsin pilot careers
 
 466 users online  

AA76 Timber Trails Airport
North Pole, Alaska, USA

GOING TO NORTH POLE?


FAA INFORMATION EFFECTIVE 15 AUGUST 2019

Location

FAA Identifier: AA76
Lat/Long: 64-46-10.0000N 147-19-46.0000W
64-46.166667N 147-19.766667W
64.7694444,-147.3294444
(estimated)
Elevation: 480 ft. / 146 m
From city: 2 miles NNE of NORTH POLE, AK
Time zone: UTC -8 (UTC -9 during Standard Time)
Zip code: 99705

Airport Operations

Airport use: Private use. Permission required prior to landing
Activation date: 11/2008
Control tower: no
ARTCC: ANCHORAGE CENTER
FSS: FAIRBANKS FLIGHT SERVICE STATION [907-474-0788]
Attendance: UNATNDD
Segmented circle: no

Airport Communications

CTAF: 122.8

Nearby radio navigation aids

VOR radial/distance  VOR name  Freq  Var
FAIr075/17.5FAIRBANKS VORTAC108.6021E

 
NDB name  Hdg/Dist  Freq  Var  ID
CHENA117/5.925717ECUN -.-. ..- -.

Airport Services

Runway Information

Runway 15/33

Dimensions: 2450 x 75 ft. / 747 x 23 m
Surface: turf
RUNWAY 15  RUNWAY 33
Traffic pattern: leftleft

Airport Ownership and Management from official FAA records

Ownership: Privately-owned
Owner: THOMAS M. ZUCCARO
5505 N BERKELEY BLV
WHITEFISH BAY, WI 53217
Phone (907) 388-1615
Manager: THOMAS M. ZUCCARO
5505 N BERKELEY BLV
WHITEFISH BAY, WI 53217
Phone (907) 388-1615

Additional Remarks

ALL ACFT MUST MONITOR AND ANNOUNCE INTENTIONS ON CTAF FREQ 122.8.
425 FT TOWER 1.6 NM SOUTH OF RY.

Instrument Procedures

There are no published instrument procedures at AA76.

Some nearby airports with instrument procedures:

PAFB - Ladd Army Airfield (8 nm NW)
PAEI - Eielson Air Force Base (9 nm SE)
PAFA - Fairbanks International Airport (14 nm W)
PANN - Nenana Municipal Airport (47 nm W)
PABI - Allen Army Airfield (62 nm SE)
 
Loc | Ops | Rwys | IFR | FBO | Links
Com | Nav | Svcs | Stats | Notes

Crowley
 
Aerial photo
No photo
 
Sectional chart

 
Airport distance calculator
Flying to Timber Trails Airport? Find the distance to fly.

From to AA76

Sunrise and sunset
Times for 18-Aug-2019
 Local
(UTC-8)
 Zulu
(UTC)
Morning civil twilight04:4312:43
Sunrise05:4813:48
Sunset21:5905:59
Evening civil twilight23:0307:03

Current date and time
Zulu (UTC)  19-Aug-2019 04:56:45
Local (UTC-8)  18-Aug-2019 20:56:45
 
METAR
PAFB 
8nm NW 
190358Z AUTO 10003KT 10SM OVC075 13/03 A3023 RMK AO2 SLP241 T01340034
PAEI 
9nm SE 
190356Z COR 09005KT 10SM CLR 14/00 A3023 RMK AO2A SLP243 T01370000 $ COR 0406
PAFA 
14nm W 
190353Z 00000KT 10SM FEW055 BKN075 BKN200 14/02 A3023 RMK AO2 SLP241 T01390017
TAF
PAEI 
9nm SE 
190400Z 1904/2010 09009KT 9999 SCT060 QNH3020INS BECMG 1908/1909 VRB06KT 9999 FEW060 QNH2993INS BECMG 1920/1921 09009KT 9999 SCT050 QNH2990INS TX15/2002Z TN07/1915Z
PAFA 
14nm W 
181720Z 1818/1924 02007KT P6SM FEW050 FM191400 VRB03KT P6SM VCFG SCT002 FM191800 05005KT P6SM FEW050
NOTAMs
Click for the latest NOTAMs
NOTAMs are issued by the DoD/FAA and will open in a separate window not controlled by AirNav.

 

 
 

Would you like to see your business listed on this page?

 If your business provides an interesting product or service to pilots, flight crews, aircraft, or users of the Timber Trails Airport, you should consider listing it here.  To start the listing process, click on the button below
 
Add a business
 

Other Pages about Timber Trails Airport

Update a link
 
Copyright © AirNav, LLC. All rights reserved. Privacy Policy  Contact